Time;durP1;ratioP1;P1;durP2;ratioP2;P2;SDS_P1;SDS_P2;PMS_P1;PMS_P2;Temp;Humidity;BMP_temperature;BMP_pressure;BME280_temperature;BME280_humidity;BME280_pressure;Samples;Min_cycle;Max_cycle;Signal;HPM_P1;HPM_P2
2023/01/01 00:01:57;;;;;;;33.25;17.30;;;;;;;11.17;100.00;100387.22;5075193;28;20077;-73
2023/01/01 00:04:33;;;;;;;29.58;16.70;;;;;;;11.11;100.00;100410.00;5092559;28;20030;-73
2023/01/01 00:06:59;;;;;;;26.20;16.42;;;;;;;11.05;100.00;100423.41;5092255;28;20063;-73
2023/01/01 00:12:09;;;;;;;29.90;17.52;;;;;;;11.01;100.00;100413.44;5093793;28;20491;-73
2023/01/01 00:14:38;;;;;;;24.52;13.52;;;;;;;10.93;100.00;100405.25;5092352;28;20032;-72
2023/01/01 00:17:04;;;;;;;20.85;13.48;;;;;;;10.93;100.00;100415.88;5092233;28;20032;-73
2023/01/01 00:19:32;;;;;;;25.80;13.77;;;;;;;10.88;100.00;100425.16;5092080;28;20481;-74
2023/01/01 00:21:59;;;;;;;26.65;14.18;;;;;;;10.81;100.00;100416.97;5093157;28;20373;-73
2023/01/01 00:24:25;;;;;;;34.15;19.77;;;;;;;10.82;100.00;100424.28;5092597;28;20032;-73
2023/01/01 00:26:51;;;;;;;29.63;15.32;;;;;;;10.78;100.00;100426.53;5093280;28;20089;-74
2023/01/01 00:29:18;;;;;;;25.20;16.02;;;;;;;10.75;100.00;100418.94;5092173;28;20389;-74
2023/01/01 00:31:46;;;;;;;16.23;10.50;;;;;;;10.71;100.00;100419.16;5093316;28;20024;-74
2023/01/01 00:34:13;;;;;;;18.67;9.63;;;;;;;10.70;100.00;100413.91;5094966;28;20112;-73
2023/01/01 00:36:39;;;;;;;9.18;4.35;;;;;;;10.80;100.00;100412.53;5098699;28;20039;-74
2023/01/01 00:39:06;;;;;;;6.65;3.47;;;;;;;10.96;100.00;100421.44;5098572;28;20036;-72
2023/01/01 00:41:32;;;;;;;4.32;2.60;;;;;;;11.17;100.00;100422.31;5095472;28;20039;-73
2023/01/01 00:43:58;;;;;;;4.30;2.08;;;;;;;11.38;100.00;100418.25;5093127;28;20033;-74
2023/01/01 00:46:25;;;;;;;3.13;1.83;;;;;;;11.52;100.00;100422.38;5093409;28;20069;-74
2023/01/01 00:48:52;;;;;;;3.22;2.33;;;;;;;11.75;100.00;100430.03;5093688;28;20040;-73
2023/01/01 00:51:19;;;;;;;3.95;2.35;;;;;;;11.97;100.00;100434.47;5078060;28;20031;-74
2023/01/01 00:53:45;;;;;;;3.00;2.10;;;;;;;12.10;100.00;100430.00;5097185;28;20020;-74
2023/01/01 00:56:11;;;;;;;3.08;2.13;;;;;;;12.22;100.00;100428.03;5097217;28;20023;-74
2023/01/01 00:58:36;;;;;;;6.72;3.10;;;;;;;12.31;100.00;100433.63;5096878;28;20034;-74
2023/01/01 01:01:02;;;;;;;3.30;2.17;;;;;;;12.41;100.00;100429.34;5095850;28;20428;-74
2023/01/01 01:03:49;;;;;;;4.57;2.28;;;;;;;12.51;100.00;100441.44;5095152;28;20391;-74
2023/01/01 01:06:16;;;;;;;2.28;1.85;;;;;;;12.53;100.00;100442.53;5095278;28;20016;-73
2023/01/01 01:08:53;;;;;;;5.90;2.30;;;;;;;12.59;100.00;100437.66;5094404;28;20019;-74
2023/01/01 01:11:21;;;;;;;3.95;2.40;;;;;;;12.69;100.00;100441.16;5094909;28;20445;-74
2023/01/01 01:14:03;;;;;;;3.90;2.55;;;;;;;12.78;100.00;100440.19;5093996;28;20106;-73
2023/01/01 01:16:36;;;;;;;3.55;2.30;;;;;;;12.86;100.00;100444.97;5091327;28;20730;-73
2023/01/01 01:19:06;;;;;;;4.20;2.55;;;;;;;12.91;100.00;100444.25;5094298;28;20039;-74
2023/01/01 01:21:33;;;;;;;3.85;2.58;;;;;;;12.93;100.00;100443.75;5095608;28;20024;-74
2023/01/01 01:24:00;;;;;;;3.20;2.22;;;;;;;12.96;100.00;100448.47;5092847;28;20032;-74
2023/01/01 01:26:28;;;;;;;4.53;2.15;;;;;;;12.99;100.00;100454.00;5093728;28;20034;-74
2023/01/01 01:28:56;;;;;;;3.17;2.42;;;;;;;12.99;100.00;100448.25;5076538;28;20031;-74
2023/01/01 01:31:24;;;;;;;4.35;2.40;;;;;;;13.01;100.00;100453.47;5094971;28;20020;-73
2023/01/01 01:33:49;;;;;;;4.47;1.98;;;;;;;12.95;100.00;100441.94;5093430;28;20480;-73
2023/01/01 01:36:16;;;;;;;3.40;2.38;;;;;;;13.00;100.00;100455.56;5093458;28;20036;-73
2023/01/01 01:38:42;;;;;;;3.80;2.50;;;;;;;13.00;100.00;100457.63;5093983;28;20080;-73
2023/01/01 01:41:26;;;;;;;3.38;2.30;;;;;;;13.04;100.00;100459.00;5093304;28;20111;-74
2023/01/01 01:44:31;;;;;;;3.58;2.33;;;;;;;13.08;100.00;100459.56;5093667;28;20044;-73
2023/01/01 01:46:59;;;;;;;5.75;2.45;;;;;;;13.11;100.00;100458.53;5085769;28;20040;-74
2023/01/01 01:49:30;;;;;;;3.03;2.20;;;;;;;13.16;100.00;100462.75;5093285;28;20440;-73
2023/01/01 01:51:55;;;;;;;4.63;2.47;;;;;;;13.17;100.00;100455.72;5093288;28;20071;-74
2023/01/01 01:54:27;;;;;;;4.47;2.22;;;;;;;13.22;100.00;100457.06;5094077;28;20054;-75
2023/01/01 01:56:57;;;;;;;5.18;2.60;;;;;;;13.34;100.00;100468.13;5093260;28;20032;-75
2023/01/01 01:59:26;;;;;;;4.72;2.88;;;;;;;13.42;100.00;100463.53;5092886;28;20031;-74
2023/01/01 02:02:14;;;;;;;7.22;2.53;;;;;;;13.47;100.00;100459.91;5076283;28;20531;-74
2023/01/01 02:04:41;;;;;;;5.68;2.95;;;;;;;13.51;100.00;100469.09;5094586;28;20545;-76
2023/01/01 02:07:06;;;;;;;4.22;2.78;;;;;;;13.55;100.00;100463.13;5092935;28;20495;-75
2023/01/01 02:09:32;;;;;;;5.60;2.92;;;;;;;13.51;100.00;100471.97;5074719;28;20040;-74
2023/01/01 02:12:06;;;;;;;5.45;2.15;;;;;;;13.53;100.00;100468.59;5095077;28;20040;-73
2023/01/01 02:14:32;;;;;;;5.25;2.30;;;;;;;13.54;100.00;100482.44;5095115;28;20024;-74
2023/01/01 02:17:08;;;;;;;2.28;1.88;;;;;;;13.53;100.00;100472.25;5092463;28;20039;-73
2023/01/01 02:19:58;;;;;;;3.17;2.13;;;;;;;13.60;100.00;100470.22;5093929;28;20522;-73
2023/01/01 02:22:55;;;;;;;3.28;2.15;;;;;;;13.66;100.00;100471.84;5093791;28;20417;-73
2023/01/01 02:25:58;;;;;;;3.10;2.10;;;;;;;13.66;100.00;100482.53;5093830;28;20035;-72
2023/01/01 02:29:09;;;;;;;2.75;1.92;;;;;;;13.61;100.00;100463.97;5095004;28;20053;-73
2023/01/01 02:31:45;;;;;;;2.33;1.83;;;;;;;13.70;100.00;100475.25;5063581;28;20043;-74
2023/01/01 02:34:13;;;;;;;3.03;2.17;;;;;;;13.67;100.00;100481.25;5077134;28;20043;-73
2023/01/01 02:36:45;;;;;;;3.60;2.03;;;;;;;13.72;100.00;100477.63;5092729;28;20055;-73
2023/01/01 02:39:18;;;;;;;4.45;1.80;;;;;;;13.75;100.00;100476.59;5092381;28;20569;-74
2023/01/01 02:41:47;;;;;;;3.38;2.15;;;;;;;13.80;100.00;100473.75;5087440;28;20039;-72
2023/01/01 02:44:39;;;;;;;1.95;1.80;;;;;;;13.90;100.00;100477.22;5075071;28;20065;-74
2023/01/01 02:47:24;;;;;;;4.47;1.83;;;;;;;13.95;100.00;100477.25;5092115;28;20031;-74
2023/01/01 02:50:17;;;;;;;2.25;1.60;;;;;;;14.01;100.00;100467.91;5093230;28;20032;-74
2023/01/01 02:53:35;;;;;;;2.95;2.00;;;;;;;14.08;100.00;100473.19;5092944;28;20118;-74
2023/01/01 02:56:11;;;;;;;2.55;1.80;;;;;;;14.09;100.00;100480.47;5058873;28;20040;-75
2023/01/01 03:02:26;;;;;;;4.75;2.13;;;;;;;14.20;100.00;100480.53;5010957;28;20121;-75
2023/01/01 03:05:12;;;;;;;2.38;2.03;;;;;;;14.23;100.00;100479.53;5010868;28;20370;-75
2023/01/01 03:08:13;;;;;;;4.22;2.88;;;;;;;14.20;100.00;100469.03;5010361;28;20086;-73
2023/01/01 03:10:57;;;;;;;4.72;2.60;;;;;;;14.19;100.00;100473.22;5010454;28;20521;-73
2023/01/01 03:13:34;;;;;;;3.35;2.15;;;;;;;14.11;100.00;100475.78;5079015;28;20032;-73
2023/01/01 03:16:19;;;;;;;2.60;1.90;;;;;;;14.03;100.00;100471.84;5075942;28;20536;-73
2023/01/01 03:19:11;;;;;;;2.97;2.00;;;;;;;13.86;100.00;100468.06;5093065;28;20032;-73
2023/01/01 03:21:42;;;;;;;;;;;;;;;13.72;100.00;100474.75;5094383;28;20119;-73
2023/01/01 03:24:31;;;;;;;3.17;1.95;;;;;;;13.58;100.00;100475.69;5094155;28;19912;-74
2023/01/01 03:27:10;;;;;;;2.88;2.22;;;;;;;13.49;100.00;100477.41;5075980;28;20031;-73
2023/01/01 03:29:39;;;;;;;2.90;2.00;;;;;;;13.47;100.00;100488.63;5092682;28;20059;-73
2023/01/01 03:32:10;;;;;;;4.32;1.73;;;;;;;13.41;100.00;100482.03;5092941;28;20032;-73
2023/01/01 03:34:40;;;;;;;2.58;1.80;;;;;;;13.41;100.00;100489.84;5092638;28;20101;-74
2023/01/01 03:37:17;;;;;;;3.63;1.90;;;;;;;13.39;100.00;100503.94;5075948;28;20442;-74
2023/01/01 03:39:50;;;;;;;3.22;2.00;;;;;;;13.41;100.00;100510.75;5093978;28;20081;-73
2023/01/01 03:42:34;;;;;;;3.90;1.70;;;;;;;13.39;100.00;100510.44;5091927;28;20081;-73
2023/01/01 03:45:06;;;;;;;2.63;1.90;;;;;;;13.39;100.00;100506.81;5092698;28;20073;-74
2023/01/01 03:47:39;;;;;;;2.58;2.13;;;;;;;13.36;100.00;100508.59;5075940;28;20028;-73
2023/01/01 03:50:06;;;;;;;2.50;1.90;;;;;;;13.36;100.00;100516.44;5093786;28;20033;-73
2023/01/01 03:52:50;;;;;;;2.58;2.03;;;;;;;13.34;100.00;100513.28;5075487;28;20028;-73
2023/01/01 03:55:29;;;;;;;3.28;2.50;;;;;;;13.32;100.00;100522.41;5092638;28;20077;-74
2023/01/01 03:58:00;;;;;;;3.22;2.08;;;;;;;13.24;100.00;100524.16;5093523;28;20056;-73
2023/01/01 04:00:45;;;;;;;5.68;2.80;;;;;;;13.21;100.00;100522.28;5092361;28;20054;-73
2023/01/01 04:03:18;;;;;;;4.10;2.50;;;;;;;13.17;100.00;100516.00;5092364;28;20107;-72
2023/01/01 04:05:45;;;;;;;4.15;2.17;;;;;;;13.18;100.00;100528.25;5093452;28;20428;-73
2023/01/01 04:08:19;;;;;;;3.25;2.28;;;;;;;13.17;100.00;100533.19;5058638;28;20123;-73
2023/01/01 04:10:50;;;;;;;4.07;2.38;;;;;;;13.16;100.00;100531.63;5093659;28;20024;-73
2023/01/01 04:13:15;;;;;;;2.60;2.00;;;;;;;13.16;100.00;100525.09;5058893;28;20123;-73
2023/01/01 04:15:42;;;;;;;3.88;2.40;;;;;;;13.17;100.00;100530.34;5093310;28;20163;-73
2023/01/01 04:18:09;;;;;;;3.15;1.90;;;;;;;13.14;100.00;100532.13;5092264;28;20024;-73
2023/01/01 04:20:36;;;;;;;4.80;2.30;;;;;;;13.14;100.00;100534.22;5093362;28;20027;-73
2023/01/01 04:23:02;;;;;;;3.53;2.00;;;;;;;13.13;100.00;100527.69;5093604;28;20020;-73
2023/01/01 04:25:29;;;;;;;2.95;1.83;;;;;;;13.15;100.00;100532.91;5095143;28;20473;-72
2023/01/01 04:28:02;;;;;;;3.55;2.08;;;;;;;13.13;100.00;100533.44;5095601;28;20036;-73
2023/01/01 04:30:28;;;;;;;4.13;2.40;;;;;;;13.13;100.00;100538.38;5095741;28;20034;-73
2023/01/01 04:33:15;;;;;;;4.50;2.67;;;;;;;13.11;100.00;100543.81;5094681;28;20027;-73
2023/01/01 04:35:40;;;;;;;4.53;2.35;;;;;;;13.06;100.00;100538.81;5077710;28;20031;-73
2023/01/01 04:38:06;;;;;;;2.97;2.17;;;;;;;13.07;100.00;100543.25;5095845;28;20024;-73
2023/01/01 04:40:31;;;;;;;3.65;2.35;;;;;;;13.09;100.00;100550.09;5095338;28;20047;-74
2023/01/01 04:42:56;;;;;;;2.92;2.10;;;;;;;13.07;100.00;100541.19;5094766;28;20039;-73
2023/01/01 04:45:26;;;;;;;5.13;2.10;;;;;;;13.06;100.00;100542.47;5076733;28;20055;-72
2023/01/01 04:48:04;;;;;;;3.75;2.45;;;;;;;13.05;100.00;100555.22;5096368;28;20036;-73
2023/01/01 04:50:35;;;;;;;5.03;1.98;;;;;;;13.08;100.00;100559.19;5096697;28;20044;-74
2023/01/01 04:53:01;;;;;;;4.05;2.03;;;;;;;13.05;100.00;100560.19;5096989;28;20036;-73
2023/01/01 04:55:32;;;;;;;3.05;2.10;;;;;;;13.07;100.00;100564.13;5095567;28;20381;-73
2023/01/01 04:57:59;;;;;;;4.60;2.78;;;;;;;13.11;100.00;100558.16;5096608;28;20053;-72
2023/01/01 05:00:25;;;;;;;2.33;2.00;;;;;;;13.13;100.00;100572.81;5095888;28;20036;-73
2023/01/01 05:02:51;;;;;;;3.53;2.35;;;;;;;13.14;100.00;100577.28;5095902;28;20354;-73
2023/01/01 05:05:17;;;;;;;4.47;2.15;;;;;;;13.16;100.00;100582.47;5096284;28;20040;-73
2023/01/01 05:07:44;;;;;;;4.55;2.75;;;;;;;13.18;100.00;100571.31;5096731;28;20028;-73
2023/01/01 05:10:09;;;;;;;2.65;1.77;;;;;;;13.17;100.00;100570.50;5096355;28;20081;-74
2023/01/01 05:12:36;;;;;;;3.63;2.00;;;;;;;13.21;100.00;100573.94;5095200;28;20059;-73
2023/01/01 05:15:01;;;;;;;4.00;2.50;;;;;;;13.21;100.00;100565.34;5096226;28;20103;-73
2023/01/01 05:17:28;;;;;;;4.03;1.77;;;;;;;13.20;100.00;100565.81;5094665;28;20148;-72
2023/01/01 05:19:54;;;;;;;3.72;2.38;;;;;;;13.22;100.00;100569.00;5094867;28;20019;-74
2023/01/01 05:22:20;;;;;;;5.57;2.63;;;;;;;13.18;100.00;100574.16;5096088;28;20408;-73
2023/01/01 05:24:47;;;;;;;4.28;2.55;;;;;;;13.16;100.00;100568.13;5096495;28;20101;-73
2023/01/01 05:27:13;;;;;;;3.42;2.35;;;;;;;13.14;100.00;100577.28;5095129;28;20035;-74
2023/01/01 05:29:39;;;;;;;6.50;3.08;;;;;;;13.08;100.00;100576.41;5096027;28;20115;-72
2023/01/01 05:32:06;;;;;;;4.00;2.38;;;;;;;13.12;100.00;100585.56;5077869;28;20090;-73
2023/01/01 05:34:33;;;;;;;3.67;2.17;;;;;;;13.10;100.00;100580.34;5095614;28;20106;-72
2023/01/01 05:37:00;;;;;;;2.63;1.73;;;;;;;13.08;100.00;100570.66;5091687;28;20067;-73
2023/01/01 05:39:26;;;;;;;3.28;2.33;;;;;;;13.08;100.00;100580.06;5094621;28;20389;-72
2023/01/01 05:42:06;;;;;;;4.22;2.70;;;;;;;13.05;100.00;100577.41;5095989;28;20020;-73
2023/01/01 05:44:31;;;;;;;3.88;2.22;;;;;;;13.03;100.00;100585.72;5095664;28;20101;-73
2023/01/01 05:46:58;;;;;;;3.88;2.42;;;;;;;13.01;100.00;100585.44;5093813;28;20036;-73
2023/01/01 05:49:23;;;;;;;5.38;2.55;;;;;;;13.01;100.00;100599.78;5095718;28;20035;-72
2023/01/01 05:51:49;;;;;;;4.25;2.08;;;;;;;12.96;100.00;100581.22;5095236;28;20040;-72
2023/01/01 05:54:17;;;;;;;3.42;2.28;;;;;;;12.95;100.00;100584.56;5095503;28;20035;-73
2023/01/01 05:56:51;;;;;;;3.78;2.25;;;;;;;12.91;100.00;100584.81;5095515;28;20065;-73
2023/01/01 05:59:17;;;;;;;4.25;2.17;;;;;;;12.88;100.00;100582.94;5095645;28;20106;-72
2023/01/01 06:01:43;;;;;;;2.78;1.98;;;;;;;12.81;100.00;100586.22;5095070;28;20036;-73
2023/01/01 06:04:10;;;;;;;4.15;2.10;;;;;;;12.75;100.00;100578.88;5095146;28;20024;-73
2023/01/01 06:06:44;;;;;;;4.45;2.03;;;;;;;12.72;100.00;100582.72;5095508;28;20032;-73
2023/01/01 06:09:10;;;;;;;2.90;1.95;;;;;;;12.66;100.00;100586.31;5094041;28;20050;-74
2023/01/01 06:11:36;;;;;;;3.25;2.50;;;;;;;12.63;100.00;100577.91;5094158;28;20035;-74
2023/01/01 06:14:01;;;;;;;4.22;2.65;;;;;;;12.59;100.00;100583.88;5093752;28;20012;-73
2023/01/01 06:16:28;;;;;;;3.65;2.42;;;;;;;12.54;100.00;100584.59;5094291;28;20123;-72
2023/01/01 06:18:53;;;;;;;3.53;2.50;;;;;;;12.55;100.00;100576.78;5077337;28;20166;-71
2023/01/01 06:21:21;;;;;;;4.57;2.80;;;;;;;12.54;100.00;100578.84;5094680;28;20497;-73
2023/01/01 06:23:47;;;;;;;4.45;2.50;;;;;;;12.53;100.00;100587.94;5077037;28;20036;-73
2023/01/01 06:26:18;;;;;;;3.05;2.08;;;;;;;12.54;100.00;100583.78;5093941;28;20039;-72
2023/01/01 06:28:45;;;;;;;;;;;;;;;12.54;100.00;100586.66;5095486;28;20036;-73
2023/01/01 06:31:12;;;;;;;6.70;2.22;;;;;;;12.50;100.00;100581.16;5095102;28;19957;-73
2023/01/01 06:33:39;;;;;;;3.55;2.28;;;;;;;12.47;100.00;100584.19;5093637;28;20435;-73
2023/01/01 06:36:08;;;;;;;2.47;1.70;;;;;;;12.43;100.00;100581.56;5093961;28;20036;-73
2023/01/01 06:38:35;;;;;;;2.95;1.98;;;;;;;12.42;100.00;100579.97;5095249;28;20107;-73
2023/01/01 06:41:12;;;;;;;4.30;2.28;;;;;;;12.43;100.00;100583.63;5076738;28;20035;-72
2023/01/01 06:43:38;;;;;;;3.53;2.00;;;;;;;12.39;100.00;100571.59;5093257;28;20044;-72
2023/01/01 06:46:07;;;;;;;3.65;2.47;;;;;;;12.42;100.00;100573.44;5094603;28;20132;-72
2023/01/01 06:48:35;;;;;;;2.78;2.05;;;;;;;12.44;100.00;100580.28;5092693;28;20023;-73
2023/01/01 06:51:09;;;;;;;3.65;2.33;;;;;;;12.48;100.00;100588.66;5093538;28;20044;-73
2023/01/01 06:53:59;;;;;;;6.35;2.65;;;;;;;12.50;100.00;100578.28;5093359;28;20020;-73
2023/01/01 06:56:30;;;;;;;2.80;2.22;;;;;;;12.49;100.00;100579.56;5094780;28;20046;-73
2023/01/01 06:58:58;;;;;;;4.63;2.08;;;;;;;12.51;100.00;100584.78;5094548;28;20055;-73
2023/01/01 07:01:26;;;;;;;3.30;2.28;;;;;;;12.50;100.00;100586.09;5094500;28;20024;-73
2023/01/01 07:04:12;;;;;;;3.60;2.42;;;;;;;12.52;100.00;100597.81;5093261;28;20039;-73
2023/01/01 07:06:39;;;;;;;3.25;1.98;;;;;;;12.45;100.00;100593.31;5094228;28;20487;-72
2023/01/01 07:09:06;;;;;;;4.00;2.40;;;;;;;12.47;100.00;100607.13;5076196;28;20123;-72
2023/01/01 07:11:32;;;;;;;3.58;2.15;;;;;;;12.49;100.00;100601.69;5093002;28;20085;-73
2023/01/01 07:13:59;;;;;;;3.33;1.92;;;;;;;12.50;100.00;100606.94;5094295;28;20032;-72
2023/01/01 07:16:25;;;;;;;3.95;2.35;;;;;;;12.52;100.00;100606.44;5076149;28;20044;-73
2023/01/01 07:18:52;;;;;;;4.90;2.85;;;;;;;12.62;100.00;100608.66;5094014;28;20028;-74
2023/01/01 07:21:27;;;;;;;3.45;2.70;;;;;;;12.68;100.00;100621.00;5076182;28;20043;-73
2023/01/01 07:23:55;;;;;;;3.90;3.00;;;;;;;12.76;100.00;100624.22;5093827;28;20032;-73
2023/01/01 07:26:30;;;;;;;4.45;2.55;;;;;;;12.83;100.00;100628.75;5092936;28;20041;-73
2023/01/01 07:28:56;;;;;;;4.50;2.63;;;;;;;12.87;100.00;100633.00;5093933;28;20043;-71
2023/01/01 07:31:21;;;;;;;2.78;2.00;;;;;;;12.89;100.00;100630.44;5075959;28;20032;-74
2023/01/01 07:33:49;;;;;;;4.22;2.17;;;;;;;12.99;100.00;100631.06;5093727;28;20515;-74
2023/01/01 07:36:15;;;;;;;3.30;2.28;;;;;;;13.03;100.00;100638.16;5093841;28;20019;-73
2023/01/01 07:38:42;;;;;;;3.03;2.10;;;;;;;13.02;100.00;100639.44;5092871;28;20111;-73
2023/01/01 07:41:09;;;;;;;5.32;2.25;;;;;;;13.03;100.00;100637.38;5092988;28;20036;-74
2023/01/01 07:43:36;;;;;;;1.88;1.65;;;;;;;13.08;100.00;100639.53;5093487;28;20040;-73
2023/01/01 07:46:01;;;;;;;2.85;2.22;;;;;;;13.14;100.00;100644.03;5093697;28;20461;-74
2023/01/01 07:48:30;;;;;;;5.30;1.95;;;;;;;13.18;100.00;100643.03;5093641;28;20028;-73
2023/01/01 07:50:55;;;;;;;3.67;2.20;;;;;;;13.25;100.00;100637.63;5093840;28;20063;-74
2023/01/01 07:53:23;;;;;;;4.63;2.53;;;;;;;13.25;100.00;100649.13;5093105;28;20051;-73
2023/01/01 07:55:49;;;;;;;4.10;1.90;;;;;;;13.30;100.00;100659.88;5093895;28;20097;-74
2023/01/01 07:58:15;;;;;;;3.15;2.35;;;;;;;13.35;100.00;100649.75;5093501;28;20028;-72
2023/01/01 08:00:57;;;;;;;3.03;1.80;;;;;;;13.34;100.00;100646.09;5097581;28;20377;-73
2023/01/01 08:03:26;;;;;;;3.20;2.00;;;;;;;13.40;100.00;100649.03;5097828;28;20028;-73
2023/01/01 08:05:54;;;;;;;3.70;2.15;;;;;;;13.41;100.00;100653.50;5097737;28;20473;-75
2023/01/01 08:08:22;;;;;;;4.35;2.17;;;;;;;13.45;100.00;100640.50;5096343;28;20484;-74
2023/01/01 08:10:49;;;;;;;4.57;2.20;;;;;;;13.49;100.00;100646.03;5097817;28;20032;-71
2023/01/01 08:13:15;;;;;;;3.72;2.22;;;;;;;13.55;100.00;100644.00;5092294;28;20042;-73
2023/01/01 08:15:42;;;;;;;3.85;2.17;;;;;;;13.59;100.00;100646.69;5097807;28;20100;-73
2023/01/01 08:18:08;;;;;;;4.38;2.50;;;;;;;13.59;100.00;100646.69;5097530;28;20130;-73
2023/01/01 08:20:35;;;;;;;4.13;2.20;;;;;;;13.64;100.00;100640.97;5096523;28;20028;-73
2023/01/01 08:23:01;;;;;;;4.60;2.10;;;;;;;13.70;100.00;100633.22;5097488;28;20036;-73
2023/01/01 08:25:29;;;;;;;3.42;2.38;;;;;;;13.74;100.00;100642.38;5096596;28;20055;-73
2023/01/01 08:27:54;;;;;;;4.22;2.15;;;;;;;13.72;100.00;100633.50;5097615;28;20032;-73
2023/01/01 08:30:21;;;;;;;3.88;2.15;;;;;;;13.81;100.00;100649.78;5097664;28;20054;-76
2023/01/01 08:32:47;;;;;;;2.08;1.73;;;;;;;13.86;100.00;100658.44;5096173;28;20028;-73
2023/01/01 08:35:15;;;;;;;4.85;2.10;;;;;;;13.96;99.69;100659.84;5097077;28;20046;-74
2023/01/01 08:37:45;;;;;;;6.55;1.75;;;;;;;13.99;98.95;100667.44;5097123;28;20522;-76
2023/01/01 08:40:12;;;;;;;3.55;2.25;;;;;;;14.02;98.88;100670.63;5093748;28;20492;-74
2023/01/01 08:42:39;;;;;;;8.05;2.17;;;;;;;14.05;98.71;100678.22;5096159;28;20468;-74
2023/01/01 08:45:06;;;;;;;3.50;2.05;;;;;;;14.08;98.64;100680.88;5096759;28;20040;-74
2023/01/01 08:47:33;;;;;;;5.50;2.22;;;;;;;14.09;98.73;100673.81;5096340;28;20024;-73
2023/01/01 08:49:59;;;;;;;9.77;2.42;;;;;;;14.13;98.94;100683.00;5094738;28;20020;-73
2023/01/01 08:52:25;;;;;;;4.47;2.08;;;;;;;14.20;99.06;100687.50;5095701;28;20502;-73
2023/01/01 08:54:51;;;;;;;2.75;1.67;;;;;;;14.26;98.95;100679.72;5084943;28;20043;-72
2023/01/01 08:57:16;;;;;;;4.57;2.13;;;;;;;14.32;99.44;100694.94;5095196;28;20024;-73
2023/01/01 08:59:43;;;;;;;5.03;2.47;;;;;;;14.35;99.02;100686.06;5096406;28;20034;-74
2023/01/01 09:02:10;;;;;;;5.60;3.08;;;;;;;14.39;98.18;100694.44;5096468;28;20043;-72
2023/01/01 09:04:36;;;;;;;4.30;2.33;;;;;;;14.46;97.13;100696.88;5076376;28;20028;-74
2023/01/01 09:07:02;;;;;;;3.63;2.10;;;;;;;14.54;95.96;100705.81;5098807;28;20028;-74
2023/01/01 09:09:28;;;;;;;5.25;2.20;;;;;;;14.58;95.59;100689.94;5098705;28;20102;-73
2023/01/01 09:12:04;;;;;;;2.60;1.98;;;;;;;14.65;94.99;100703.84;5097487;28;20476;-74
2023/01/01 09:14:32;;;;;;;6.20;2.10;;;;;;;14.72;94.06;100711.22;5096436;28;20400;-73
2023/01/01 09:16:57;;;;;;;8.23;2.65;;;;;;;14.76;93.45;100703.16;5096860;28;20491;-74
2023/01/01 09:19:23;;;;;;;8.63;3.60;;;;;;;14.84;92.98;100695.59;5096163;28;20024;-74
2023/01/01 09:21:50;;;;;;;5.70;2.92;;;;;;;14.83;91.54;100703.44;5097059;28;20032;-73
2023/01/01 09:24:17;;;;;;;5.82;2.42;;;;;;;14.80;92.45;100690.09;5095824;28;20040;-77
2023/01/01 09:26:58;;;;;;;2.85;1.73;;;;;;;14.85;93.32;100688.56;5096722;28;20105;-76
2023/01/01 09:29:24;;;;;;;2.05;1.42;;;;;;;14.85;94.68;100679.91;5096915;28;20385;-75
2023/01/01 09:31:50;;;;;;;3.17;1.90;;;;;;;14.89;94.15;100676.78;5095212;28;20040;-74
2023/01/01 09:34:24;;;;;;;3.47;1.92;;;;;;;14.83;94.95;100673.88;5096310;28;20435;-75
2023/01/01 09:36:50;;;;;;;5.03;2.28;;;;;;;14.87;95.57;100679.41;5096454;28;20046;-73
2023/01/01 09:39:15;;;;;;;4.03;2.47;;;;;;;14.71;97.11;100673.03;5096531;28;20431;-75
2023/01/01 09:41:54;;;;;;;5.05;2.85;;;;;;;14.74;97.87;100683.50;5096637;28;20058;-76
2023/01/01 09:44:41;;;;;;;5.20;2.78;;;;;;;14.67;98.45;100683.22;5095817;28;20056;-75
2023/01/01 09:47:21;;;;;;;5.47;3.17;;;;;;;14.62;98.27;100670.38;5096002;28;20085;-73
2023/01/01 09:49:47;;;;;;;4.05;2.58;;;;;;;14.57;97.99;100673.16;5094704;28;20032;-74
2023/01/01 09:52:14;;;;;;;4.57;2.58;;;;;;;14.59;97.58;100667.72;5077632;28;20081;-74
2023/01/01 09:54:51;;;;;;;3.58;2.88;;;;;;;14.62;98.02;100678.22;5094281;28;20457;-73
2023/01/01 09:57:19;;;;;;;6.60;2.78;;;;;;;14.63;98.07;100676.88;5095531;28;20024;-73
2023/01/01 09:59:44;;;;;;;4.55;2.47;;;;;;;14.61;98.79;100665.91;5095785;28;20032;-74
2023/01/01 10:02:41;;;;;;;3.55;2.33;;;;;;;14.63;98.81;100668.25;5095827;28;20046;-74
2023/01/01 10:05:29;;;;;;;3.10;1.98;;;;;;;14.60;99.18;100675.03;5094623;28;20074;-74
2023/01/01 10:08:16;;;;;;;4.50;2.45;;;;;;;14.61;99.26;100665.13;5094238;28;20067;-77
2023/01/01 10:11:20;;;;;;;4.05;2.50;;;;;;;14.56;100.00;100660.88;5095503;28;20020;-74
2023/01/01 10:13:45;;;;;;;5.03;2.95;;;;;;;14.56;100.00;100662.97;5081947;28;20036;-73
2023/01/01 10:16:43;;;;;;;4.93;2.58;;;;;;;14.52;100.00;100671.03;5094035;28;20027;-74
2023/01/01 10:19:52;;;;;;;4.65;2.40;;;;;;;14.52;100.00;100668.16;5095425;28;20495;-74
2023/01/01 10:22:52;;;;;;;3.90;2.67;;;;;;;14.50;100.00;100682.25;5070438;28;20070;-73
2023/01/01 10:25:25;;;;;;;8.38;3.30;;;;;;;14.51;100.00;100683.84;5052515;28;20041;-72
2023/01/01 10:27:57;;;;;;;4.70;2.95;;;;;;;14.51;100.00;100680.97;5060061;28;20040;-81
2023/01/01 10:30:23;;;;;;;5.30;3.13;;;;;;;14.57;100.00;100690.44;5094768;28;20016;-74
2023/01/01 10:32:51;;;;;;;3.72;2.90;;;;;;;14.62;100.00;100684.75;5077066;28;20070;-74
2023/01/01 10:35:29;;;;;;;4.30;3.00;;;;;;;14.63;100.00;100694.94;5060380;28;20030;-74
2023/01/01 10:38:00;;;;;;;4.10;2.38;;;;;;;14.70;99.74;100691.59;5093314;28;20068;-72
2023/01/01 10:40:28;;;;;;;4.97;2.80;;;;;;;14.68;100.00;100693.38;5093449;28;20023;-73
2023/01/01 10:42:58;;;;;;;4.47;3.17;;;;;;;14.64;100.00;100690.75;5075945;28;20560;-74
2023/01/01 10:45:35;;;;;;;5.68;3.35;;;;;;;14.60;100.00;100683.66;5076554;28;20043;-73
2023/01/01 10:48:24;;;;;;;7.97;3.30;;;;;;;14.58;100.00;100695.69;5093262;28;20024;-74
2023/01/01 10:50:50;;;;;;;5.65;3.78;;;;;;;14.57;100.00;100699.06;5076266;28;20032;-72
2023/01/01 10:53:33;;;;;;;7.10;3.28;;;;;;;14.62;100.00;100699.13;5094740;28;20095;-72
2023/01/01 10:56:14;;;;;;;5.63;3.42;;;;;;;14.70;100.00;100697.34;5093290;28;20069;-73
2023/01/01 10:58:44;;;;;;;7.32;3.30;;;;;;;14.87;100.00;100688.84;5093275;28;20034;-73
2023/01/01 11:01:21;;;;;;;4.25;3.22;;;;;;;15.04;99.25;100686.84;5093005;28;20115;-72
2023/01/01 11:04:06;;;;;;;3.63;3.05;;;;;;;15.21;97.56;100686.94;5092614;28;20035;-72
2023/01/01 11:06:35;;;;;;;7.22;3.40;;;;;;;15.33;97.36;100684.88;5086835;28;20500;-77
2023/01/01 11:09:05;;;;;;;4.50;3.42;;;;;;;15.42;95.95;100681.75;5094640;28;20028;-78
2023/01/01 11:11:44;;;;;;;6.82;3.47;;;;;;;15.49;96.15;100684.16;5077801;28;20024;-77
2023/01/01 11:14:35;;;;;;;5.60;3.33;;;;;;;15.46;96.41;100679.44;5093035;28;20070;-77
2023/01/01 11:17:01;;;;;;;5.45;3.53;;;;;;;15.56;94.85;100686.56;5092661;28;20020;-79
2023/01/01 11:19:36;;;;;;;4.03;3.03;;;;;;;15.60;92.55;100685.03;5093460;28;20552;-78
2023/01/01 11:22:03;;;;;;;4.90;3.03;;;;;;;15.68;91.69;100693.94;5091385;28;20031;-78
2023/01/01 11:24:29;;;;;;;3.88;2.85;;;;;;;15.74;90.60;100680.34;5092240;28;20066;-78
2023/01/01 11:27:22;;;;;;;4.05;2.50;;;;;;;15.80;89.05;100684.03;5091811;28;20024;-78
2023/01/01 11:29:50;;;;;;;3.65;3.28;;;;;;;15.86;89.20;100681.94;5086242;28;20082;-78
2023/01/01 11:32:20;;;;;;;5.40;2.92;;;;;;;15.92;88.63;100676.19;5091943;28;20503;-78
2023/01/01 11:34:52;;;;;;;6.20;3.10;;;;;;;15.84;87.91;100673.03;5092021;28;20031;-79
2023/01/01 11:37:18;;;;;;;4.13;2.90;;;;;;;15.86;87.54;100681.94;5091858;28;20027;-77
2023/01/01 11:39:45;;;;;;;5.47;3.03;;;;;;;15.88;87.77;100672.75;5094043;28;20118;-78
2023/01/01 11:42:16;;;;;;;6.43;3.15;;;;;;;15.89;87.93;100669.38;5094063;28;20473;-79
2023/01/01 11:44:46;;;;;;;5.88;3.58;;;;;;;16.01;87.69;100679.59;5092333;28;20048;-78
2023/01/01 11:47:34;;;;;;;3.83;2.80;;;;;;;16.04;86.44;100672.81;5092973;28;20050;-78